createdAt,value
2023-04-10T00:02:27.299Z,9.74
2023-04-10T00:04:54.423Z,9.74
2023-04-10T00:07:21.683Z,9.62
2023-04-10T00:09:48.706Z,9.70
2023-04-10T00:12:16.137Z,9.68
2023-04-10T00:14:43.217Z,9.33
2023-04-10T00:17:12.429Z,9.40
2023-04-10T00:19:39.349Z,9.58
2023-04-10T00:22:06.365Z,9.59
2023-04-10T00:24:36.323Z,9.49
2023-04-10T00:27:05.891Z,9.54
2023-04-10T00:29:32.869Z,9.51
2023-04-10T00:32:01.114Z,9.50
2023-04-10T00:34:30.076Z,9.49
2023-04-10T00:36:56.856Z,9.47
2023-04-10T00:39:23.827Z,9.46
2023-04-10T00:41:51.115Z,9.41
2023-04-10T00:44:18.033Z,9.14
2023-04-10T00:46:45.144Z,9.31
2023-04-10T00:49:12.205Z,9.34
2023-04-10T00:51:42.123Z,9.21
2023-04-10T00:54:10.715Z,9.29
2023-04-10T00:56:38.130Z,9.18
2023-04-10T00:59:07.512Z,9.25
2023-04-10T01:01:36.768Z,9.23
2023-04-10T01:04:06.110Z,9.23
2023-04-10T01:07:00.811Z,9.22
2023-04-10T01:10:12.878Z,8.09
2023-04-10T01:12:48.691Z,9.25
2023-04-10T01:15:27.242Z,9.25
2023-04-10T01:18:13.959Z,8.98
2023-04-10T01:20:42.345Z,9.10
2023-04-10T01:23:53.474Z,9.05
2023-04-10T01:26:37.167Z,9.21
2023-04-10T01:29:10.094Z,9.26
2023-04-10T01:31:42.653Z,9.18
2023-04-10T01:34:20.205Z,9.20
2023-04-10T01:37:01.373Z,9.31
2023-04-10T01:39:30.840Z,9.26
2023-04-10T01:42:00.167Z,9.20
2023-04-10T01:44:30.549Z,9.25
2023-04-10T01:46:58.968Z,9.33
2023-04-10T01:49:32.975Z,9.19
2023-04-10T01:52:03.812Z,9.18
2023-04-10T01:54:36.826Z,9.25
2023-04-10T01:57:04.864Z,9.15
2023-04-10T01:59:34.165Z,9.29
2023-04-10T02:02:01.856Z,9.33
2023-04-10T02:04:28.910Z,9.33
2023-04-10T02:07:06.836Z,9.32
2023-04-10T02:10:07.252Z,9.30
2023-04-10T02:12:41.825Z,9.21
2023-04-10T02:15:10.598Z,9.23
2023-04-10T02:17:40.002Z,9.20
2023-04-10T02:20:09.216Z,9.19
2023-04-10T02:22:37.551Z,9.13
2023-04-10T02:25:06.249Z,9.19
2023-04-10T02:27:37.575Z,9.29
2023-04-10T02:30:05.543Z,9.28
2023-04-10T02:32:37.247Z,9.09
2023-04-10T02:35:07.665Z,9.13
2023-04-10T02:37:36.373Z,9.25
2023-04-10T02:40:03.493Z,8.93
2023-04-10T02:42:30.592Z,8.90
2023-04-10T02:44:57.741Z,9.23
2023-04-10T02:47:24.804Z,9.21
2023-04-10T02:49:51.966Z,9.20
2023-04-10T02:52:18.928Z,8.41
2023-04-10T02:54:46.475Z,9.19
2023-04-10T02:57:15.687Z,9.15
2023-04-10T02:59:42.624Z,9.15
2023-04-10T03:02:14.515Z,9.09
2023-04-10T03:04:41.471Z,9.12
2023-04-10T03:07:08.186Z,8.95
2023-04-10T03:09:35.211Z,8.96
2023-04-10T03:12:02.657Z,9.04
2023-04-10T03:14:32.182Z,8.85
2023-04-10T03:16:58.932Z,8.93
2023-04-10T03:19:28.181Z,8.96
2023-04-10T03:21:55.123Z,8.87
2023-04-10T03:24:21.966Z,8.92
2023-04-10T03:26:48.701Z,8.81
2023-04-10T03:29:19.295Z,8.85
2023-04-10T03:31:46.219Z,8.82
2023-04-10T03:34:13.039Z,8.70
2023-04-10T03:36:39.833Z,8.71
2023-04-10T03:39:06.823Z,8.69
2023-04-10T03:41:36.401Z,8.63
2023-04-10T03:44:04.056Z,8.58
2023-04-10T03:46:30.979Z,8.61
2023-04-10T03:48:57.878Z,8.55
2023-04-10T03:51:27.727Z,8.54
2023-04-10T03:53:57.036Z,8.49
2023-04-10T03:56:23.876Z,8.48
2023-04-10T03:58:50.952Z,8.38
2023-04-10T04:01:17.929Z,8.35
2023-04-10T04:03:50.707Z,8.40
2023-04-10T04:06:17.762Z,8.37
2023-04-10T04:08:49.480Z,8.16
2023-04-10T04:11:21.035Z,8.34
2023-04-10T04:13:53.101Z,8.25
2023-04-10T04:16:22.939Z,7.93
2023-04-10T04:18:50.009Z,8.29
2023-04-10T04:21:16.950Z,8.19
2023-04-10T04:23:44.773Z,8.21
2023-04-10T04:26:14.772Z,8.20
2023-04-10T04:28:41.721Z,8.20
2023-04-10T04:31:11.262Z,8.18
2023-04-10T04:33:38.125Z,8.19
2023-04-10T04:36:07.783Z,8.19
2023-04-10T04:38:34.613Z,8.11
2023-04-10T04:41:01.552Z,8.13
2023-04-10T04:43:28.539Z,8.20
2023-04-10T04:45:55.263Z,8.14
2023-04-10T04:48:24.375Z,8.24
2023-04-10T04:50:51.016Z,8.25
2023-04-10T04:53:17.706Z,8.28
2023-04-10T04:55:44.412Z,8.27
2023-04-10T04:58:11.185Z,8.27
2023-04-10T05:00:37.865Z,8.27
2023-04-10T05:03:06.896Z,8.22
2023-04-10T05:05:34.475Z,8.19
2023-04-10T05:08:01.653Z,8.26
2023-04-10T05:10:28.872Z,8.28
2023-04-10T05:12:58.201Z,8.30
2023-04-10T05:15:32.961Z,8.32
2023-04-10T05:18:02.626Z,8.30
2023-04-10T05:20:34.903Z,7.59
2023-04-10T05:23:05.693Z,8.38
2023-04-10T05:25:32.566Z,8.34
2023-04-10T05:28:01.939Z,8.47
2023-04-10T05:30:30.248Z,8.46
2023-04-10T05:33:00.018Z,8.53
2023-04-10T05:35:26.774Z,8.64
2023-04-10T05:37:53.774Z,8.65
2023-04-10T05:40:24.062Z,8.82
2023-04-10T05:42:51.226Z,8.87
2023-04-10T05:45:18.762Z,8.94
2023-04-10T05:47:48.135Z,9.01
2023-04-10T05:50:18.293Z,9.14
2023-04-10T05:52:46.886Z,9.21
2023-04-10T05:55:13.729Z,9.41
2023-04-10T05:57:40.842Z,9.49
2023-04-10T06:00:09.496Z,9.66
2023-04-10T06:02:41.866Z,9.81
2023-04-10T06:05:09.200Z,9.87
2023-04-10T06:07:36.264Z,10.17
2023-04-10T06:10:03.244Z,10.17
2023-04-10T06:12:30.178Z,9.41
2023-04-10T06:14:56.840Z,10.29
2023-04-10T06:17:25.858Z,10.31
2023-04-10T06:19:52.755Z,10.36
2023-04-10T06:22:21.655Z,10.39
2023-04-10T06:24:51.819Z,10.43
2023-04-10T06:27:18.647Z,10.46
2023-04-10T06:30:03.877Z,10.51
2023-04-10T06:32:30.936Z,10.64
2023-04-10T06:34:57.875Z,10.63
2023-04-10T06:37:31.755Z,10.68
2023-04-10T06:40:07.315Z,10.73
2023-04-10T06:42:35.904Z,10.76
2023-04-10T06:45:06.487Z,10.76
2023-04-10T06:47:33.400Z,10.76
2023-04-10T06:50:04.961Z,10.89
2023-04-10T06:52:32.519Z,10.85
2023-04-10T06:55:01.800Z,10.91
2023-04-10T06:57:28.997Z,10.79
2023-04-10T06:59:57.048Z,11.09
2023-04-10T07:02:24.072Z,11.07
2023-04-10T07:04:53.937Z,11.13
2023-04-10T07:07:20.825Z,11.11
2023-04-10T07:09:47.949Z,11.20
2023-04-10T07:12:14.637Z,11.32
2023-04-10T07:14:44.437Z,11.43
2023-04-10T07:17:13.714Z,11.36
2023-04-10T07:19:42.805Z,11.67
2023-04-10T07:22:09.724Z,11.86
2023-04-10T07:24:38.847Z,12.09
2023-04-10T07:27:05.616Z,12.34
2023-04-10T07:29:32.378Z,12.62
2023-04-10T07:31:59.288Z,12.78
2023-04-10T07:34:26.332Z,12.80
2023-04-10T07:36:53.457Z,13.05
2023-04-10T07:39:20.280Z,13.45
2023-04-10T07:41:47.175Z,13.77
2023-04-10T07:44:14.633Z,14.29
2023-04-10T07:46:41.815Z,15.09
2023-04-10T07:49:08.983Z,15.87
2023-04-10T07:51:36.353Z,16.38
2023-04-10T07:54:04.528Z,16.99
2023-04-10T07:56:33.826Z,17.40
2023-04-10T07:59:03.864Z,17.91
2023-04-10T08:01:30.937Z,18.52
2023-04-10T08:03:58.070Z,18.84
2023-04-10T08:06:27.931Z,19.12
2023-04-10T08:08:55.218Z,18.84
2023-04-10T08:11:29.420Z,18.38
2023-04-10T08:14:02.068Z,17.73
2023-04-10T08:16:30.972Z,17.45
2023-04-10T08:18:58.762Z,16.89
2023-04-10T08:21:29.948Z,16.26
2023-04-10T08:23:58.487Z,16.38
2023-04-10T08:26:27.929Z,16.25
2023-04-10T08:28:58.652Z,16.14
2023-04-10T08:31:27.675Z,16.29
2023-04-10T08:34:14.454Z,16.80
2023-04-10T08:36:45.299Z,16.87
2023-04-10T08:39:14.691Z,16.97
2023-04-10T08:41:41.710Z,16.97
2023-04-10T08:44:10.236Z,16.82
2023-04-10T08:46:40.685Z,16.52
2023-04-10T08:49:20.073Z,16.24
2023-04-10T08:51:57.791Z,16.01
2023-04-10T08:54:36.591Z,15.81
2023-04-10T08:57:09.184Z,15.60
2023-04-10T08:59:40.248Z,15.40
2023-04-10T09:02:10.601Z,15.70
2023-04-10T09:04:38.001Z,15.72
2023-04-10T09:07:09.678Z,15.83
2023-04-10T09:09:36.894Z,15.88
2023-04-10T09:12:04.146Z,15.89
2023-04-10T09:14:35.280Z,15.83
2023-04-10T09:17:15.838Z,15.72
2023-04-10T09:19:47.279Z,15.64
2023-04-10T09:22:14.461Z,15.60
2023-04-10T09:24:44.473Z,15.57
2023-04-10T09:27:27.905Z,15.59
2023-04-10T09:29:55.528Z,15.58
2023-04-10T09:32:45.359Z,15.54
2023-04-10T09:35:16.854Z,15.46
2023-04-10T09:37:47.020Z,15.69
2023-04-10T09:40:25.521Z,15.87
2023-04-10T09:42:53.559Z,16.01
2023-04-10T09:45:22.547Z,15.97
2023-04-10T09:48:07.373Z,16.04
2023-04-10T09:50:40.407Z,15.95
2023-04-10T09:53:09.289Z,16.02
2023-04-10T09:55:38.091Z,15.94
2023-04-10T09:58:06.157Z,16.13
2023-04-10T10:00:40.010Z,16.07
2023-04-10T10:03:10.551Z,16.26
2023-04-10T10:05:43.097Z,16.39
2023-04-10T10:08:11.247Z,16.51
2023-04-10T10:10:46.064Z,16.49
2023-04-10T10:13:22.834Z,16.75
2023-04-10T10:15:54.962Z,16.72
2023-04-10T10:18:25.483Z,16.88
2023-04-10T10:20:55.846Z,16.95
2023-04-10T10:23:23.651Z,17.04
2023-04-10T10:25:51.334Z,17.24
2023-04-10T10:28:19.176Z,17.46
2023-04-10T10:30:49.849Z,17.53
2023-04-10T10:33:21.837Z,17.65
2023-04-10T10:35:50.206Z,17.87
2023-04-10T10:38:18.765Z,18.07
2023-04-10T10:40:51.905Z,18.14
2023-04-10T10:43:38.199Z,18.07
2023-04-10T10:46:09.580Z,18.04
2023-04-10T10:48:36.234Z,18.14
2023-04-10T10:51:04.063Z,17.85
2023-04-10T10:53:31.989Z,18.12
2023-04-10T10:55:58.601Z,18.30
2023-04-10T10:58:50.303Z,18.66
2023-04-10T11:01:20.309Z,18.80
2023-04-10T11:03:48.353Z,19.09
2023-04-10T11:06:19.890Z,19.24
2023-04-10T11:08:49.400Z,19.43
2023-04-10T11:11:24.580Z,19.57
2023-04-10T11:13:58.103Z,19.47
2023-04-10T11:16:47.278Z,19.52
2023-04-10T11:19:19.941Z,19.68
2023-04-10T11:22:04.775Z,20.06
2023-04-10T11:25:00.997Z,20.24
2023-04-10T11:27:54.709Z,20.33
2023-04-10T11:30:36.723Z,20.09
2023-04-10T11:33:05.898Z,20.43
2023-04-10T11:35:34.673Z,20.53
2023-04-10T11:38:11.240Z,20.61
2023-04-10T11:40:56.651Z,20.59
2023-04-10T11:43:24.598Z,20.49
2023-04-10T11:45:59.624Z,20.42
2023-04-10T11:48:28.991Z,20.43
2023-04-10T11:50:57.358Z,20.33
2023-04-10T11:53:30.610Z,20.34
2023-04-10T11:56:00.828Z,20.20
2023-04-10T11:58:30.965Z,20.11
2023-04-10T12:01:04.414Z,20.09
2023-04-10T12:03:47.149Z,20.12
2023-04-10T12:06:16.107Z,20.19
2023-04-10T12:08:50.038Z,20.30
2023-04-10T12:11:26.337Z,20.40
2023-04-10T12:13:58.662Z,20.45
2023-04-10T12:16:27.711Z,20.37
2023-04-10T12:18:56.287Z,19.59
2023-04-10T12:21:24.116Z,20.10
2023-04-10T12:23:54.303Z,19.91
2023-04-10T12:26:24.721Z,19.76
2023-04-10T12:28:55.525Z,19.63
2023-04-10T12:31:37.666Z,19.51
2023-04-10T12:34:05.584Z,19.42
2023-04-10T12:36:34.892Z,19.47
2023-04-10T12:39:03.633Z,19.33
2023-04-10T12:41:34.241Z,19.22
2023-04-10T12:44:14.075Z,19.04
2023-04-10T12:46:45.956Z,18.92
2023-04-10T12:49:17.207Z,18.81
2023-04-10T12:51:49.887Z,18.70
2023-04-10T12:54:34.227Z,18.64
2023-04-10T12:57:02.394Z,18.49
2023-04-10T12:59:30.322Z,18.38
2023-04-10T13:01:57.142Z,18.27
2023-04-10T13:04:24.060Z,18.09
2023-04-10T13:06:56.475Z,18.08
2023-04-10T13:09:23.151Z,17.99
2023-04-10T13:11:52.114Z,17.92
2023-04-10T13:14:18.796Z,17.89
2023-04-10T13:16:47.597Z,17.90
2023-04-10T13:19:16.567Z,17.88
2023-04-10T13:21:43.125Z,17.85
2023-04-10T13:24:12.604Z,17.82
2023-04-10T13:26:42.610Z,17.70
2023-04-10T13:29:09.181Z,17.58
2023-04-10T13:31:35.867Z,17.62
2023-04-10T13:34:05.783Z,17.68
2023-04-10T13:36:32.489Z,17.73
2023-04-10T13:38:59.130Z,17.75
2023-04-10T13:41:25.757Z,17.78
2023-04-10T13:43:55.980Z,17.77
2023-04-10T13:46:22.915Z,17.93
2023-04-10T13:48:49.502Z,18.07
2023-04-10T13:51:16.051Z,18.14
2023-04-10T13:53:42.644Z,18.21
2023-04-10T13:56:12.039Z,18.29
2023-04-10T13:58:45.498Z,18.33
2023-04-10T14:01:14.603Z,18.34
2023-04-10T14:03:43.686Z,18.22
2023-04-10T14:06:10.350Z,18.21
2023-04-10T14:08:39.075Z,18.23
2023-04-10T14:11:06.021Z,18.08
2023-04-10T14:13:32.885Z,18.07
2023-04-10T14:16:01.737Z,17.88
2023-04-10T14:18:28.412Z,17.75
2023-04-10T14:20:55.096Z,17.66
2023-04-10T14:23:23.055Z,17.54
2023-04-10T14:25:52.207Z,17.39
2023-04-10T14:28:21.358Z,17.27
2023-04-10T14:30:50.675Z,17.16
2023-04-10T14:33:24.370Z,17.07
2023-04-10T14:35:53.094Z,16.87
2023-04-10T14:38:19.706Z,16.87
2023-04-10T14:40:52.132Z,16.84
2023-04-10T14:43:20.945Z,16.78
2023-04-10T14:45:52.071Z,16.74
2023-04-10T14:48:19.965Z,16.67
2023-04-10T14:50:49.722Z,16.61
2023-04-10T14:53:16.817Z,16.60
2023-04-10T14:55:48.772Z,16.51
2023-04-10T14:58:15.607Z,16.45
2023-04-10T15:00:43.727Z,16.31
2023-04-10T15:03:13.438Z,16.30
2023-04-10T15:05:42.542Z,16.24
2023-04-10T15:08:09.235Z,16.19
2023-04-10T15:10:38.371Z,15.91
2023-04-10T15:13:06.093Z,16.07
2023-04-10T15:15:32.681Z,16.05
2023-04-10T15:17:59.342Z,16.05
2023-04-10T15:20:26.037Z,16.07
2023-04-10T15:22:52.947Z,16.08
2023-04-10T15:25:19.863Z,16.18
2023-04-10T15:27:46.548Z,16.21
2023-04-10T15:30:13.234Z,16.23
2023-04-10T15:32:39.841Z,16.14
2023-04-10T15:35:09.152Z,16.10
2023-04-10T15:37:36.731Z,16.07
2023-04-10T15:40:04.723Z,16.08
2023-04-10T15:42:31.313Z,16.11
2023-04-10T15:44:57.988Z,16.12
2023-04-10T15:47:24.785Z,16.08
2023-04-10T15:49:51.413Z,15.94
2023-04-10T15:52:18.116Z,15.84
2023-04-10T15:54:44.699Z,15.93
2023-04-10T15:57:11.203Z,15.85
2023-04-10T15:59:37.814Z,15.76
2023-04-10T16:02:06.924Z,15.71
2023-04-10T16:04:35.175Z,15.70
2023-04-10T16:07:01.970Z,15.58
2023-04-10T16:09:31.171Z,15.57
2023-04-10T16:11:58.098Z,15.55
2023-04-10T16:14:24.859Z,15.35
2023-04-10T16:16:51.425Z,15.46
2023-04-10T16:19:30.544Z,15.41
2023-04-10T16:21:57.380Z,15.39
2023-04-10T16:24:24.046Z,15.25
2023-04-10T16:26:50.744Z,15.27
2023-04-10T16:29:19.838Z,15.21
2023-04-10T16:31:46.540Z,15.15
2023-04-10T16:34:13.263Z,15.11
2023-04-10T16:36:42.133Z,15.05
2023-04-10T16:39:08.880Z,14.73
2023-04-10T16:41:35.506Z,14.80
2023-04-10T16:44:04.557Z,14.70
2023-04-10T16:46:33.167Z,14.57
2023-04-10T16:49:02.928Z,14.46
2023-04-10T16:51:31.935Z,14.39
2023-04-10T16:54:00.754Z,14.15
2023-04-10T16:56:27.375Z,14.22
2023-04-10T16:58:54.244Z,14.11
2023-04-10T17:01:26.466Z,14.02
2023-04-10T17:03:54.558Z,13.88
2023-04-10T17:06:21.307Z,13.85
2023-04-10T17:08:48.200Z,13.82
2023-04-10T17:11:14.923Z,13.77
2023-04-10T17:13:42.164Z,13.68
2023-04-10T17:16:09.561Z,13.65
2023-04-10T17:18:36.277Z,13.64
2023-04-10T17:21:05.523Z,13.58
2023-04-10T17:23:32.305Z,13.49
2023-04-10T17:25:59.048Z,13.47
2023-04-10T17:28:26.109Z,13.42
2023-04-10T17:30:52.742Z,13.38
2023-04-10T17:33:21.866Z,13.29
2023-04-10T17:35:51.195Z,13.31
2023-04-10T17:38:18.244Z,13.25
2023-04-10T17:40:44.856Z,13.29
2023-04-10T17:43:11.450Z,13.28
2023-04-10T17:45:41.488Z,13.27
2023-04-10T17:48:08.824Z,13.23
2023-04-10T17:50:35.782Z,13.21
2023-04-10T17:53:02.483Z,13.18
2023-04-10T17:55:29.189Z,13.10
2023-04-10T17:58:00.396Z,13.22
2023-04-10T18:00:27.030Z,13.07
2023-04-10T18:03:00.868Z,13.16
2023-04-10T18:05:32.158Z,13.13
2023-04-10T18:08:00.968Z,13.01
2023-04-10T18:10:27.570Z,13.04
2023-04-10T18:12:58.581Z,13.06
2023-04-10T18:15:25.965Z,12.89
2023-04-10T18:17:52.616Z,13.03
2023-04-10T18:20:20.867Z,13.02
2023-04-10T18:22:50.488Z,12.93
2023-04-10T18:25:20.099Z,12.96
2023-04-10T18:28:09.577Z,12.93
2023-04-10T18:30:39.106Z,12.91
2023-04-10T18:33:09.977Z,12.88
2023-04-10T18:35:37.902Z,12.87
2023-04-10T18:38:09.236Z,12.79
2023-04-10T18:40:36.905Z,12.83
2023-04-10T18:43:06.089Z,12.81
2023-04-10T18:45:37.453Z,12.64
2023-04-10T18:48:04.226Z,12.77
2023-04-10T18:50:36.912Z,13.07
2023-04-10T18:53:05.723Z,12.83
2023-04-10T18:55:34.724Z,12.81
2023-04-10T18:58:01.520Z,12.76
2023-04-10T19:00:28.217Z,12.68
2023-04-10T19:02:55.670Z,12.55
2023-04-10T19:05:22.552Z,12.55
2023-04-10T19:08:00.548Z,12.54
2023-04-10T19:10:32.279Z,12.51
2023-04-10T19:13:01.309Z,12.52
2023-04-10T19:15:30.122Z,12.48
2023-04-10T19:17:56.970Z,12.44
2023-04-10T19:20:48.933Z,12.80
2023-04-10T19:23:11.216Z,12.42
2023-04-10T19:25:38.031Z,12.51
2023-04-10T19:28:04.674Z,12.47
2023-04-10T19:30:31.301Z,12.36
2023-04-10T19:33:00.542Z,12.35
2023-04-10T19:35:27.274Z,12.33
2023-04-10T19:37:57.805Z,12.57
2023-04-10T19:40:26.779Z,12.41
2023-04-10T19:42:53.566Z,12.35
2023-04-10T19:45:27.266Z,12.30
2023-04-10T19:47:56.282Z,12.24
2023-04-10T19:50:23.067Z,12.20
2023-04-10T19:52:49.865Z,12.20
2023-04-10T19:55:18.757Z,12.17
2023-04-10T19:57:46.044Z,12.07
2023-04-10T20:00:13.165Z,12.08
2023-04-10T20:02:40.349Z,11.96
2023-04-10T20:05:07.602Z,11.96
2023-04-10T20:07:34.208Z,11.89
2023-04-10T20:10:03.511Z,11.85
2023-04-10T20:12:33.182Z,11.85
2023-04-10T20:15:00.736Z,11.82
2023-04-10T20:17:28.008Z,11.77
2023-04-10T20:19:57.757Z,11.64
2023-04-10T20:22:24.578Z,11.68
2023-04-10T20:24:53.659Z,11.63
2023-04-10T20:27:20.598Z,11.58
2023-04-10T20:29:49.866Z,11.49
2023-04-10T20:32:19.184Z,11.50
2023-04-10T20:34:48.406Z,11.44
2023-04-10T20:37:18.783Z,11.52
2023-04-10T20:39:48.597Z,11.42
2023-04-10T20:42:17.081Z,11.45
2023-04-10T20:44:44.022Z,11.40
2023-04-10T20:47:11.043Z,11.22
2023-04-10T20:49:38.357Z,11.30
2023-04-10T20:52:06.234Z,11.28
2023-04-10T20:54:33.649Z,11.01
2023-04-10T20:57:06.222Z,11.21
2023-04-10T20:59:33.369Z,11.08
2023-04-10T21:02:00.256Z,11.12
2023-04-10T21:04:27.049Z,11.04
2023-04-10T21:06:53.795Z,10.78
2023-04-10T21:09:20.962Z,11.04
2023-04-10T21:11:47.634Z,10.98
2023-04-10T21:14:14.473Z,10.86
2023-04-10T21:16:42.786Z,10.92
2023-04-10T21:19:09.699Z,10.92
2023-04-10T21:21:36.430Z,10.85
2023-04-10T21:24:03.516Z,10.91
2023-04-10T21:26:30.284Z,10.90
2023-04-10T21:29:01.923Z,10.88
2023-04-10T21:31:28.776Z,10.83
2023-04-10T21:33:55.616Z,10.88
2023-04-10T21:36:22.389Z,10.89
2023-04-10T21:38:49.097Z,10.88
2023-04-10T21:41:15.869Z,10.92
2023-04-10T21:43:44.913Z,11.04
2023-04-10T21:46:12.034Z,11.01
2023-04-10T21:48:39.209Z,10.98
2023-04-10T21:51:08.683Z,10.47
2023-04-10T21:53:35.344Z,11.01
2023-04-10T21:56:08.168Z,11.00
2023-04-10T21:58:39.863Z,10.92
2023-04-10T22:01:08.375Z,10.92
2023-04-10T22:03:38.538Z,10.92
2023-04-10T22:06:05.450Z,10.98
2023-04-10T22:08:34.729Z,11.03
2023-04-10T22:11:01.578Z,11.00
2023-04-10T22:13:31.128Z,10.96
2023-04-10T22:15:58.848Z,11.14
2023-04-10T22:18:25.874Z,11.10
2023-04-10T22:20:52.878Z,11.14
2023-04-10T22:23:19.642Z,11.19
2023-04-10T22:25:48.739Z,11.12
2023-04-10T22:28:15.916Z,11.16
2023-04-10T22:30:42.622Z,11.20
2023-04-10T22:33:14.315Z,11.12
2023-04-10T22:35:41.083Z,11.13
2023-04-10T22:38:07.920Z,11.19
2023-04-10T22:40:34.720Z,11.18
2023-04-10T22:43:01.709Z,11.20
2023-04-10T22:45:28.640Z,11.20
2023-04-10T22:47:55.847Z,11.18
2023-04-10T22:50:22.685Z,11.10
2023-04-10T22:52:49.575Z,11.15
2023-04-10T22:55:16.532Z,11.18
2023-04-10T22:57:47.653Z,11.17
2023-04-10T23:00:15.020Z,11.21
2023-04-10T23:02:41.986Z,11.23
2023-04-10T23:05:09.341Z,11.22
2023-04-10T23:07:36.071Z,11.08
2023-04-10T23:10:02.963Z,11.16
2023-04-10T23:12:32.151Z,11.10
2023-04-10T23:15:01.308Z,11.12
2023-04-10T23:17:28.210Z,11.01
2023-04-10T23:19:57.339Z,11.00
2023-04-10T23:22:24.126Z,10.91
2023-04-10T23:24:54.851Z,11.01
2023-04-10T23:27:21.765Z,11.05
2023-04-10T23:29:51.844Z,11.02
2023-04-10T23:32:18.514Z,11.00
2023-04-10T23:34:46.387Z,10.94
2023-04-10T23:37:13.169Z,10.92
2023-04-10T23:39:39.997Z,10.84
2023-04-10T23:42:06.871Z,10.93
2023-04-10T23:44:33.542Z,10.95
2023-04-10T23:47:00.328Z,10.80
2023-04-10T23:49:27.197Z,10.86
2023-04-10T23:51:54.015Z,10.89
2023-04-10T23:54:23.038Z,10.82
2023-04-10T23:56:49.813Z,10.89
2023-04-10T23:59:17.264Z,10.87
